Warning: Javascript must be enabled to use all the features on this page!


Page Loading - Please Wait...

* We've detected you're using a mobile device. Find our Next Generation Station Page here.
Click to hideNews Bulletins

Peak Streamflow for the Nation

USGS 05451700 Timber Creek near Marshalltown, IA

Marshall County, Iowa
Hydrologic Unit Code 07080208
Latitude  42°00'32", Longitude  92°51'08" NAD27
Drainage area 118  square miles
Gage datum 849.44 feet above NGVD29
Output formats
Table
Graph
Tab-separated file
peakfq (watstore) format
Reselect output format
Water
Year
Date Gage
Height
(feet)
Stream-
flow
(cfs)
1947 1947-06 16.80Bd 5,7007,Bd
1950 1950-06-18 15.77 4,940
1951 1951-06-01 11.52 1,390
1952 1952-03-10 13.87 2,770
1953 1953-02-20 15.09 4,030
1954 1954-06-10 13.47 2,450
1955 1955-02-19 13.45 1,500
1956 1956-05-13 4.35 150
1957 1957-07-03 15.38 4,420
1958 1958-02-24 10.561 8002
1959 1959-03-20 14.59 3,420
1960 1960-03-30 14.57 3,420
1961 1961-02-18 15.67 4,810
1962 1962-07-14 13.53 2,450
1963 1963-03-13 13.241 1,1002
1964 1964-06-23 12.86 2,020
1965 1965-04-24 14.312 3,130
1966 1966-06-12 16.31 5,200
1967 1967-06-10 9.65 915
1968 1968-03-08 7.49 546
1969 1969-06-30 13.942 2,800
1970 1970-05-14 16.66 5,940
1971 1971-02-20 15.171 2,2002
1972 1972-06-13 15.08 3,760
1973 1973-02-01 16.471 4,2002
1974 1974-06-09 17.57 8,090
1975 1975-03-20 14.83 3,610
1976 1976-06-14 13.00 2,230
1977 1977-08-16 17.69 12,000
1978 1978-03-21 13.301 2,0002
1979 1979-03-19 15.63 4,760
1980 1980-06-14 12.31 1,820
1981 1981-02-26 6.85 510
1982 1982-06-15 17.30 9,940
1983 1983-05-19 14.79 3,570
1984 1984-06-10 14.802 3,580
1985 1985-02-23 13.26 2,050
1986 1986-09-21 15.16 4,030
1987 1987-03-05 9.38 943
1988 1988-01-31   8032
1989 1989-01-29 9.94 1,070
1990 1990-06-20 15.42 4,470
1991 1991-05-16 15.92 3,360
1992 1992-02-18 9.56 984
1993 1993-07-09 17.03 8,870
1994 1994-02-19 14.141 1,2002
1995 1995-04-27 12.75 1,810
1996 1996-06-17 9.492 1,040
1997 1997-06-21 11.252 1,380
1998 1998-06-21 14.71 3,160
1999 1999-04-09 11.38 1,180
2000 2000-06-14 9.67 879
2001 2001-06-13 14.20 2,290
2002 2002-06-18 12.98 2,280
2003 2003-05-09 12.95 1,490
2004 2004-05-23 15.62 4,240
2005 2005-05-13 14.26 2,950
2006 2006-04-03 9.65 1,090
2007 2007-04-26 14.73 2,750
2008 2008-06-08 16.19 7,010
2009 2009-04-27 15.52 5,650
2010 2010-05-13 15.07 4,860
2011 2011-06-10 15.27 5,200
2012 2012-04-15 10.13 1,280
2013 2013-05-26 16.35 7,350
2014 2014-07-01 17.11 9,260
2015 2015-06-25 14.97 3,660
2016 2015-12-14 14.81 4,440
2018 2018-09-04 14.64  
2019 2019-03-14 16.50 8,300
2020 2020-05-28 10.73 1,220
2021 2021-03-08 7.76 589
?
  Peak Gage-Height Qualification Codes.
?
  Peak Streamflow Qualification Codes.